Flugplatz Heringsdorf (EDAH)

Hier findest Du alle Informationen zum Flugplatz Heringsdorf (EDAH).

Informationen für Piloten zum Flugplatz Heringsdorf

Hier findest Du alle relevanten Informationen, die Du als Pilot benötigst, um Heringsdorf anzufliegen.

Flugplatz: Heringsdorf ICAO-Code: EDAH
Frequenz Turm: 132,825 Mhz GAFOR Gebiet: 12
Frequenz Ground: 132,825 Mhz Mogas: nein
Platzrunde: - Landegebühr: -
Platzhöhe: - Sunrise: 02:46 Uhr UTC
Pisten: 10/28 - 2.305 m x 35 m, ASPH Sunset: 19:13 Uhr UTC

Flugwetter am Flugplatz Heringsdorf

Die METAR Information stammen aus EDAH.

METAR Code:
2022/05/19 11:50
EDAH 191150Z 18007KT CAVOK 26/11 Q1019

Flugschulen am Flugplatz Heringsdorf

Am Flugplatz Heringsdorf gibt es eine Flugschule.

Usedomer Fluggesellschaft mbH Dreiachs Tragschrauber

Benachbarte Flugplätze und Flugschulen

Es gibt 4 weitere Flugplätze in einem Umkreis von 50 km um den Flugplatz Heringsdorf.

Flugplatz Mellenthin UL Platz 8.91 km
Flugplatz Anklam EDCA 31.82 km
Flugplatz Peenemünde EDCP 39.70 km
Flugplatz Pasewalk-Franzfelde EDCV 43.72 km
Jetzt anmelden

Passwort vergessen

Umfrage Archiv

Sendet Ihr ADS-B und/oder FLARM?

Ja
81.6 %
Nein
18.4 %
Stimmen: 147 | Diskussion
Anzeige: Roland Aircraft
Statistik Alle Mitglieder

Aktuell sind 56 Besucher online, davon 2 Mitglieder und 54 Gäste.


Mitglieder online:
Nordex  HansOtto 

Anzeige: ULPower Aero Engines Anzeige: Pocket FMS